createdAt,value
2019-05-11T00:00:39.266Z,99326.16
2019-05-11T00:03:12.620Z,99332.36
2019-05-11T00:05:46.532Z,99327.77
2019-05-11T00:08:19.559Z,99321.22
2019-05-11T00:10:54.372Z,99317.01
2019-05-11T00:13:29.594Z,99316.80
2019-05-11T00:16:05.308Z,99313.20
2019-05-11T00:18:38.343Z,99310.91
2019-05-11T00:21:12.301Z,99311.81
2019-05-11T00:23:46.656Z,99303.31
2019-05-11T00:26:19.705Z,99302.97
2019-05-11T00:28:53.150Z,99299.85
2019-05-11T00:31:25.866Z,99305.45
2019-05-11T00:33:58.722Z,99299.49
2019-05-11T00:36:32.694Z,99306.08
2019-05-11T00:39:10.705Z,99306.92
2019-05-11T00:41:46.460Z,99307.04
2019-05-11T00:44:19.826Z,99306.34
2019-05-11T00:46:52.903Z,99304.00
2019-05-11T00:49:26.065Z,99301.52
2019-05-11T00:51:59.086Z,99298.72
2019-05-11T00:54:33.007Z,99298.78
2019-05-11T00:57:05.726Z,99301.56
2019-05-11T00:59:43.326Z,99305.27
2019-05-11T01:02:16.216Z,99308.52
2019-05-11T01:04:52.457Z,99306.77
2019-05-11T01:07:25.074Z,99307.27
2019-05-11T01:10:00.477Z,99299.12
2019-05-11T01:12:37.849Z,99298.17
2019-05-11T01:15:12.476Z,99299.66
2019-05-11T01:17:47.197Z,99300.05
2019-05-11T01:20:22.994Z,99294.97
2019-05-11T01:22:56.479Z,99298.72
2019-05-11T01:25:31.312Z,99296.47
2019-05-11T01:28:07.002Z,99297.23
2019-05-11T01:30:43.082Z,99297.63
2019-05-11T01:33:16.759Z,99291.87
2019-05-11T01:35:53.102Z,99286.63
2019-05-11T01:38:25.922Z,99286.11
2019-05-11T01:41:03.023Z,99277.13
2019-05-11T01:43:35.947Z,99270.12
2019-05-11T01:46:10.277Z,99275.72
2019-05-11T01:48:45.001Z,99279.51
2019-05-11T01:51:17.783Z,99279.98
2019-05-11T01:53:51.504Z,99277.08
2019-05-11T01:56:26.878Z,99275.53
2019-05-11T01:59:01.341Z,99273.27
2019-05-11T02:01:35.458Z,99268.67
2019-05-11T02:04:11.588Z,99261.37
2019-05-11T02:06:48.955Z,99259.80
2019-05-11T02:09:27.157Z,99255.59
2019-05-11T02:11:59.963Z,99260.59
2019-05-11T02:14:33.434Z,99256.83
2019-05-11T02:17:07.781Z,99256.67
2019-05-11T02:19:41.581Z,99258.02
2019-05-11T02:22:15.423Z,99262.25
2019-05-11T02:24:48.120Z,99265.97
2019-05-11T02:27:20.829Z,99261.82
2019-05-11T02:29:53.688Z,99268.45
2019-05-11T02:32:26.421Z,99262.70
2019-05-11T02:34:58.984Z,99265.81
2019-05-11T02:37:31.590Z,99269.31
2019-05-11T02:40:05.610Z,99266.17
2019-05-11T02:42:39.864Z,99260.13
2019-05-11T02:45:38.114Z,99262.28
2019-05-11T02:48:11.557Z,99256.56
2019-05-11T02:50:45.048Z,99260.45
2019-05-11T02:53:19.317Z,99264.24
2019-05-11T02:55:52.720Z,99266.27
2019-05-11T02:58:25.400Z,99265.75
2019-05-11T03:00:57.933Z,99262.34
2019-05-11T03:03:30.551Z,99263.69
2019-05-11T03:06:03.128Z,99260.61
2019-05-11T03:08:35.682Z,99262.27
2019-05-11T03:11:08.310Z,99264.27
2019-05-11T03:13:41.830Z,99264.83
2019-05-11T03:16:14.424Z,99268.10
2019-05-11T03:18:47.033Z,99261.70
2019-05-11T03:21:19.975Z,99258.42
2019-05-11T03:23:52.588Z,99267.25
2019-05-11T03:26:25.165Z,99273.52
2019-05-11T03:28:57.931Z,99274.25
2019-05-11T03:31:30.527Z,99272.56
2019-05-11T03:34:03.106Z,99280.05
2019-05-11T03:36:35.846Z,99282.33
2019-05-11T03:39:08.421Z,99282.66
2019-05-11T03:41:41.992Z,99280.48
2019-05-11T03:44:14.694Z,99280.25
2019-05-11T03:46:47.191Z,99283.66
2019-05-11T03:49:19.767Z,99286.36
2019-05-11T03:51:52.345Z,99285.08
2019-05-11T03:54:24.971Z,99282.77
2019-05-11T03:56:57.500Z,99281.48
2019-05-11T03:59:30.151Z,99282.77
2019-05-11T04:02:06.151Z,99285.48
2019-05-11T04:04:38.790Z,99286.23
2019-05-11T04:07:11.512Z,99285.08
2019-05-11T04:09:44.948Z,99280.66
2019-05-11T04:12:33.466Z,99278.79
2019-05-11T04:15:07.586Z,99273.41
2019-05-11T04:17:40.267Z,99278.84
2019-05-11T04:20:12.991Z,99266.20
2019-05-11T04:22:45.570Z,99264.61
2019-05-11T04:25:18.286Z,99267.77
2019-05-11T04:27:52.961Z,99269.20
2019-05-11T04:30:25.731Z,99269.09
2019-05-11T04:32:59.132Z,99271.59
2019-05-11T04:35:35.085Z,99277.36
2019-05-11T04:38:07.724Z,99269.23
2019-05-11T04:40:40.360Z,99268.66
2019-05-11T04:43:13.281Z,99273.16
2019-05-11T04:45:46.419Z,99274.02
2019-05-11T04:48:19.822Z,99274.69
2019-05-11T04:50:53.262Z,99270.03
2019-05-11T04:53:25.967Z,99271.02
2019-05-11T04:55:58.688Z,99271.34
2019-05-11T04:58:31.179Z,99266.56
2019-05-11T05:01:03.854Z,99273.04
2019-05-11T05:03:40.751Z,99274.28
2019-05-11T05:06:22.767Z,99268.94
2019-05-11T05:09:03.026Z,99277.53
2019-05-11T05:11:38.308Z,99279.86
2019-05-11T05:14:11.090Z,99285.73
2019-05-11T05:16:43.867Z,99280.70
2019-05-11T05:19:17.269Z,99279.17
2019-05-11T05:21:49.844Z,99278.09
2019-05-11T05:24:23.959Z,99276.25
2019-05-11T05:26:56.658Z,99278.67
2019-05-11T05:29:29.908Z,99279.52
2019-05-11T05:32:02.645Z,99276.92
2019-05-11T05:34:35.210Z,99280.90
2019-05-11T05:37:08.889Z,99279.98
2019-05-11T05:39:41.375Z,99283.77
2019-05-11T05:42:14.181Z,99283.31
2019-05-11T05:44:52.300Z,99281.38
2019-05-11T05:47:24.935Z,99277.09
2019-05-11T05:49:57.975Z,99276.66
2019-05-11T05:52:30.595Z,99275.59
2019-05-11T05:55:03.334Z,99276.22
2019-05-11T05:57:37.013Z,99275.19
2019-05-11T06:00:13.420Z,99276.06
2019-05-11T06:02:47.236Z,99277.71
2019-05-11T06:05:20.045Z,99282.99
2019-05-11T06:07:53.235Z,99280.04
2019-05-11T06:10:28.741Z,99285.80
2019-05-11T06:13:02.215Z,99290.70
2019-05-11T06:15:37.676Z,99285.78
2019-05-11T06:18:10.384Z,99280.02
2019-05-11T06:20:44.132Z,99281.14
2019-05-11T06:23:16.694Z,99283.86
2019-05-11T06:25:49.285Z,99285.16
2019-05-11T06:28:21.845Z,99290.92
2019-05-11T06:30:55.658Z,99288.95
2019-05-11T06:33:28.420Z,99289.27
2019-05-11T06:36:01.634Z,99286.66
2019-05-11T06:38:34.186Z,99292.17
2019-05-11T06:41:08.000Z,99291.15
2019-05-11T06:43:40.769Z,99290.41
2019-05-11T06:46:13.430Z,99291.32
2019-05-11T06:48:46.151Z,99278.22
2019-05-11T06:51:20.514Z,99283.98
2019-05-11T06:53:53.167Z,99284.91
2019-05-11T06:56:25.815Z,99286.09
2019-05-11T06:58:59.134Z,99292.11
2019-05-11T07:01:32.073Z,99293.93
2019-05-11T07:04:04.721Z,99298.69
2019-05-11T07:06:38.467Z,99304.05
2019-05-11T07:09:13.129Z,99306.89
2019-05-11T07:11:46.631Z,99311.80
2019-05-11T07:14:21.441Z,99312.59
2019-05-11T07:16:55.166Z,99313.87
2019-05-11T07:19:29.988Z,99321.35
2019-05-11T07:22:03.407Z,99321.38
2019-05-11T07:24:36.042Z,99325.41
2019-05-11T07:27:08.491Z,99321.19
2019-05-11T07:29:42.667Z,99326.46
2019-05-11T07:32:23.059Z,99323.45
2019-05-11T07:34:59.421Z,99330.01
2019-05-11T07:37:32.140Z,99327.77
2019-05-11T07:40:05.180Z,99334.28
2019-05-11T07:42:38.639Z,99339.69
2019-05-11T07:45:14.931Z,99335.30
2019-05-11T07:47:55.601Z,99332.50
2019-05-11T07:50:32.079Z,99339.64
2019-05-11T07:53:10.243Z,99342.38
2019-05-11T07:55:45.310Z,99347.20
2019-05-11T07:58:25.657Z,99341.58
2019-05-11T08:00:58.363Z,99347.62
2019-05-11T08:03:31.083Z,99348.45
2019-05-11T08:06:08.910Z,99349.41
2019-05-11T08:08:56.079Z,99355.05
2019-05-11T08:11:32.399Z,99358.31
2019-05-11T08:14:07.849Z,99356.67
2019-05-11T08:16:42.168Z,99363.87
2019-05-11T08:19:18.535Z,99362.95
2019-05-11T08:21:58.273Z,99368.28
2019-05-11T08:24:32.947Z,99370.95
2019-05-11T08:27:08.226Z,99377.39
2019-05-11T08:29:41.846Z,99382.98
2019-05-11T08:32:15.375Z,99385.92
2019-05-11T08:34:49.959Z,99387.11
2019-05-11T08:37:22.587Z,99392.13
2019-05-11T08:39:58.536Z,99396.11
2019-05-11T08:42:34.822Z,99399.03
2019-05-11T08:45:18.823Z,99401.22
2019-05-11T08:47:57.916Z,99406.02
2019-05-11T08:50:31.742Z,99404.91
2019-05-11T08:53:04.372Z,99406.97
2019-05-11T08:55:39.979Z,99414.87
2019-05-11T08:58:12.781Z,99416.63
2019-05-11T09:00:47.670Z,99422.22
2019-05-11T09:03:22.575Z,99424.61
2019-05-11T09:05:57.889Z,99431.02
2019-05-11T09:08:38.850Z,99431.55
2019-05-11T09:11:13.322Z,99429.55
2019-05-11T09:13:49.104Z,99436.35
2019-05-11T09:16:22.991Z,99445.39
2019-05-11T09:18:58.104Z,99450.14
2019-05-11T09:21:33.805Z,99457.66
2019-05-11T09:24:08.871Z,99461.56
2019-05-11T09:26:47.987Z,99464.65
2019-05-11T09:29:20.730Z,99469.05
2019-05-11T09:31:55.036Z,99479.02
2019-05-11T09:34:28.859Z,99473.27
2019-05-11T09:37:01.699Z,99475.11
2019-05-11T09:39:34.268Z,99476.78
2019-05-11T09:42:09.851Z,99474.44
2019-05-11T09:44:43.440Z,99484.96
2019-05-11T09:47:39.451Z,99482.75
2019-05-11T09:50:28.407Z,99497.31
2019-05-11T09:53:02.706Z,99494.02
2019-05-11T09:55:40.632Z,99500.06
2019-05-11T09:58:19.963Z,99501.34
2019-05-11T10:00:58.606Z,99505.33
2019-05-11T10:03:39.101Z,99510.76
2019-05-11T10:06:20.256Z,99520.86
2019-05-11T10:08:58.020Z,99518.05
2019-05-11T10:11:31.357Z,99518.05
2019-05-11T10:14:04.213Z,99524.56
2019-05-11T10:16:38.615Z,99519.86
2019-05-11T10:19:13.119Z,99513.00
2019-05-11T10:21:48.561Z,99514.75
2019-05-11T10:24:23.864Z,99512.91
2019-05-11T10:26:57.830Z,99512.74
2019-05-11T10:29:33.969Z,99520.40
2019-05-11T10:32:09.703Z,99526.00
2019-05-11T10:34:44.669Z,99526.99
2019-05-11T10:37:18.821Z,99540.03
2019-05-11T10:39:52.107Z,99536.53
2019-05-11T10:42:38.781Z,99537.36
2019-05-11T10:45:18.206Z,99541.79
2019-05-11T10:47:57.258Z,99541.63
2019-05-11T10:50:33.221Z,99554.56
2019-05-11T10:53:10.445Z,99556.12
2019-05-11T10:55:44.054Z,99554.20
2019-05-11T10:58:18.456Z,99558.20
2019-05-11T11:00:51.527Z,99555.27
2019-05-11T11:03:25.194Z,99538.30
2019-05-11T11:05:58.177Z,99552.02
2019-05-11T11:08:33.285Z,99557.58
2019-05-11T11:11:08.144Z,99558.94
2019-05-11T11:13:41.674Z,99564.91
2019-05-11T11:16:35.042Z,99569.48
2019-05-11T11:19:09.473Z,99575.20
2019-05-11T11:21:42.184Z,99579.31
2019-05-11T11:24:17.978Z,99572.31
2019-05-11T11:26:50.845Z,99581.03
2019-05-11T11:29:24.272Z,99577.79
2019-05-11T11:31:58.730Z,99575.86
2019-05-11T11:34:31.626Z,99584.98
2019-05-11T11:37:04.639Z,99588.54
2019-05-11T11:39:38.854Z,99590.95
2019-05-11T11:42:17.900Z,99587.51
2019-05-11T11:44:51.597Z,99596.98
2019-05-11T11:47:24.661Z,99598.83
2019-05-11T11:50:00.525Z,99607.52
2019-05-11T11:52:34.953Z,99615.70
2019-05-11T11:55:08.506Z,99607.97
2019-05-11T11:57:41.962Z,99599.96
2019-05-11T12:00:20.296Z,99615.05
2019-05-11T12:02:53.035Z,99618.09
2019-05-11T12:05:28.306Z,99631.16
2019-05-11T12:08:01.852Z,99630.01
2019-05-11T12:10:37.934Z,99635.94
2019-05-11T12:13:12.315Z,99642.75
2019-05-11T12:15:45.050Z,99641.81
2019-05-11T12:18:19.787Z,99651.39
2019-05-11T12:20:58.567Z,99652.20
2019-05-11T12:23:34.640Z,99662.26
2019-05-11T12:26:09.378Z,99659.38
2019-05-11T12:28:45.162Z,99666.37
2019-05-11T12:31:21.503Z,99671.84
2019-05-11T12:34:00.659Z,99677.16
2019-05-11T12:36:35.099Z,99683.11
2019-05-11T12:39:09.973Z,99690.00
2019-05-11T12:41:43.607Z,99695.52
2019-05-11T12:44:18.584Z,99691.44
2019-05-11T12:46:53.293Z,99701.75
2019-05-11T12:49:26.114Z,99707.51
2019-05-11T12:52:00.133Z,99722.78
2019-05-11T12:54:34.116Z,99726.55
2019-05-11T12:57:07.957Z,99726.51
2019-05-11T12:59:42.298Z,99734.45
2019-05-11T13:02:18.281Z,99745.36
2019-05-11T13:04:53.071Z,99757.59
2019-05-11T13:07:28.281Z,99760.73
2019-05-11T13:10:01.201Z,99765.80
2019-05-11T13:12:34.339Z,99772.73
2019-05-11T13:15:09.825Z,99785.11
2019-05-11T13:17:48.832Z,99785.54
2019-05-11T13:20:24.857Z,99792.84
2019-05-11T13:22:58.736Z,99792.97
2019-05-11T13:25:32.222Z,99793.89
2019-05-11T13:28:08.543Z,99799.64
2019-05-11T13:30:41.416Z,99798.89
2019-05-11T13:33:14.034Z,99806.41
2019-05-11T13:35:48.260Z,99804.94
2019-05-11T13:38:21.065Z,99809.35
2019-05-11T13:40:54.789Z,99813.45
2019-05-11T13:43:28.473Z,99799.48
2019-05-11T13:46:01.704Z,99823.04
2019-05-11T13:48:34.410Z,99833.00
2019-05-11T13:51:08.767Z,99824.87
2019-05-11T13:53:42.475Z,99826.48
2019-05-11T13:56:17.658Z,99834.34
2019-05-11T13:58:51.690Z,99837.38
2019-05-11T14:01:27.875Z,99840.14
2019-05-11T14:04:04.631Z,99836.97
2019-05-11T14:06:38.386Z,99839.70
2019-05-11T14:09:11.146Z,99870.81
2019-05-11T14:11:47.871Z,99859.61
2019-05-11T14:14:21.411Z,99864.16
2019-05-11T14:16:55.371Z,99866.80
2019-05-11T14:19:29.229Z,99864.46
2019-05-11T14:22:04.795Z,99863.33
2019-05-11T14:24:37.789Z,99859.64
2019-05-11T14:27:13.480Z,99864.34
2019-05-11T14:29:52.013Z,99872.70
2019-05-11T14:32:28.468Z,99874.52
2019-05-11T14:35:01.307Z,99879.11
2019-05-11T14:37:37.951Z,99882.08
2019-05-11T14:40:11.614Z,99895.35
2019-05-11T14:42:49.100Z,99907.45
2019-05-11T14:45:22.569Z,99911.35
2019-05-11T14:47:58.101Z,99905.27
2019-05-11T14:50:34.354Z,99906.03
2019-05-11T14:53:14.679Z,99917.70
2019-05-11T14:55:48.804Z,99924.98
2019-05-11T14:58:27.620Z,99933.80
2019-05-11T15:01:01.841Z,99932.27
2019-05-11T15:03:37.859Z,99949.36
2019-05-11T15:06:14.627Z,99953.64
2019-05-11T15:08:49.469Z,99957.42
2019-05-11T15:11:23.749Z,99965.89
2019-05-11T15:13:57.946Z,99970.12
2019-05-11T15:16:30.962Z,99976.22
2019-05-11T15:19:03.671Z,99978.91
2019-05-11T15:21:38.742Z,99984.10
2019-05-11T15:24:12.638Z,99980.63
2019-05-11T15:26:48.768Z,99986.30
2019-05-11T15:29:22.643Z,99992.55
2019-05-11T15:31:57.865Z,99999.36
2019-05-11T15:34:32.322Z,100002.09
2019-05-11T15:37:13.864Z,100006.09
2019-05-11T15:39:49.636Z,100004.31
2019-05-11T15:42:24.922Z,100009.80
2019-05-11T15:45:04.031Z,100006.70
2019-05-11T15:48:08.248Z,100012.97
2019-05-11T15:50:49.291Z,100017.19
2019-05-11T15:53:22.238Z,100025.41
2019-05-11T15:55:59.639Z,100030.13
2019-05-11T15:58:41.452Z,100031.58
2019-05-11T16:01:14.739Z,100032.47
2019-05-11T16:03:49.982Z,100036.81
2019-05-11T16:06:28.433Z,100047.89
2019-05-11T16:09:08.017Z,100048.73
2019-05-11T16:11:42.622Z,100056.09
2019-05-11T16:14:16.246Z,100059.77
2019-05-11T16:16:53.772Z,100059.39
2019-05-11T16:19:30.509Z,100067.87
2019-05-11T16:22:04.524Z,100072.61
2019-05-11T16:24:39.808Z,100073.55
2019-05-11T16:27:12.855Z,100079.95
2019-05-11T16:29:48.221Z,100085.19
2019-05-11T16:32:24.353Z,100087.09
2019-05-11T16:34:57.639Z,100094.87
2019-05-11T16:37:34.342Z,100099.65
2019-05-11T16:40:08.885Z,100100.88
2019-05-11T16:42:43.516Z,100106.88
2019-05-11T16:45:31.563Z,100105.08
2019-05-11T16:48:05.271Z,100108.67
2019-05-11T16:50:39.107Z,100111.91
2019-05-11T16:53:11.828Z,100114.02
2019-05-11T16:55:48.352Z,100123.34
2019-05-11T16:58:23.088Z,100122.91
2019-05-11T17:00:58.183Z,100128.52
2019-05-11T17:03:31.210Z,100132.45
2019-05-11T17:06:04.210Z,100125.17
2019-05-11T17:08:38.512Z,100138.42
2019-05-11T17:11:12.810Z,100136.34
2019-05-11T17:13:48.295Z,100139.05
2019-05-11T17:16:25.436Z,100147.53
2019-05-11T17:19:00.162Z,100147.83
2019-05-11T17:21:33.885Z,100146.62
2019-05-11T17:24:06.690Z,100158.98
2019-05-11T17:26:42.440Z,100167.99
2019-05-11T17:29:19.702Z,100172.83
2019-05-11T17:31:57.814Z,100176.17
2019-05-11T17:34:40.174Z,100179.98
2019-05-11T17:37:14.303Z,100184.34
2019-05-11T17:39:48.040Z,100188.77
2019-05-11T17:42:22.872Z,100191.23
2019-05-11T17:45:00.745Z,100197.81
2019-05-11T17:47:35.380Z,100204.79
2019-05-11T17:50:09.739Z,100204.25
2019-05-11T17:52:47.754Z,100212.10
2019-05-11T17:55:23.046Z,100218.46
2019-05-11T17:57:58.183Z,100223.83
2019-05-11T18:00:31.649Z,100222.08
2019-05-11T18:03:10.197Z,100225.97
2019-05-11T18:05:48.402Z,100233.13
2019-05-11T18:08:30.954Z,100236.27
2019-05-11T18:11:08.180Z,100241.77
2019-05-11T18:13:42.353Z,100244.00
2019-05-11T18:16:15.257Z,100251.63
2019-05-11T18:18:48.652Z,100255.67
2019-05-11T18:21:22.710Z,100260.79
2019-05-11T18:23:56.267Z,100265.54
2019-05-11T18:26:29.919Z,100275.78
2019-05-11T18:29:03.188Z,100273.17
2019-05-11T18:31:38.445Z,100278.92
2019-05-11T18:34:14.548Z,100283.97
2019-05-11T18:36:48.516Z,100295.50
2019-05-11T18:39:23.189Z,100299.20
2019-05-11T18:41:58.719Z,100307.43
2019-05-11T18:44:32.600Z,100315.45
2019-05-11T18:47:08.793Z,100323.77
2019-05-11T18:49:41.718Z,100328.50
2019-05-11T18:52:15.212Z,100334.58
2019-05-11T18:54:48.937Z,100340.39
2019-05-11T18:57:22.164Z,100339.61
2019-05-11T18:59:54.825Z,100344.09
2019-05-11T19:02:28.330Z,100348.80
2019-05-11T19:05:01.217Z,100357.61
2019-05-11T19:07:33.986Z,100367.14
2019-05-11T19:10:11.937Z,100368.81
2019-05-11T19:12:48.825Z,100376.22
2019-05-11T19:15:21.834Z,100380.84
2019-05-11T19:17:57.910Z,100385.54
2019-05-11T19:20:44.492Z,100398.20
2019-05-11T19:23:19.913Z,100407.37
2019-05-11T19:25:54.900Z,100416.33
2019-05-11T19:28:28.239Z,100426.47
2019-05-11T19:31:01.790Z,100433.36
2019-05-11T19:33:38.218Z,100434.47
2019-05-11T19:36:11.184Z,100437.39
2019-05-11T19:38:44.187Z,100444.44
2019-05-11T19:41:18.552Z,100452.62
2019-05-11T19:43:53.464Z,100456.73
2019-05-11T19:46:28.050Z,100466.95
2019-05-11T19:49:01.676Z,100475.59
2019-05-11T19:51:43.255Z,100473.64
2019-05-11T19:54:18.410Z,100480.81
2019-05-11T19:56:55.074Z,100489.59
2019-05-11T19:59:29.437Z,100503.06
2019-05-11T20:02:04.936Z,100508.38
2019-05-11T20:04:38.737Z,100511.75
2019-05-11T20:07:18.323Z,100519.00
2019-05-11T20:09:52.305Z,100527.91
2019-05-11T20:12:28.388Z,100528.92
2019-05-11T20:15:04.923Z,100532.80
2019-05-11T20:17:42.460Z,100538.30
2019-05-11T20:20:18.066Z,100541.59
2019-05-11T20:22:52.735Z,100548.72
2019-05-11T20:25:28.757Z,100557.73
2019-05-11T20:28:05.857Z,100560.38
2019-05-11T20:30:53.331Z,100572.80
2019-05-11T20:33:27.928Z,100574.20
2019-05-11T20:36:02.274Z,100581.42
2019-05-11T20:38:38.415Z,100586.94
2019-05-11T20:41:12.779Z,100594.58
2019-05-11T20:43:49.011Z,100600.41
2019-05-11T20:46:22.674Z,100607.89
2019-05-11T20:48:57.939Z,100609.77
2019-05-11T20:51:36.595Z,100620.89
2019-05-11T20:54:17.538Z,100628.77
2019-05-11T20:56:53.547Z,100629.41
2019-05-11T20:59:28.738Z,100633.28
2019-05-11T21:02:02.277Z,100633.20
2019-05-11T21:04:35.126Z,100638.01
2019-05-11T21:07:09.170Z,100636.66
2019-05-11T21:09:44.457Z,100645.07
2019-05-11T21:12:19.362Z,100647.99
2019-05-11T21:14:57.894Z,100650.31
2019-05-11T21:17:33.052Z,100654.82
2019-05-11T21:20:11.115Z,100655.39
2019-05-11T21:22:45.777Z,100657.31
2019-05-11T21:25:21.712Z,100662.33
2019-05-11T21:27:57.901Z,100667.96
2019-05-11T21:30:32.058Z,100672.52
2019-05-11T21:33:05.438Z,100676.08
2019-05-11T21:35:39.689Z,100681.74
2019-05-11T21:38:14.070Z,100687.94
2019-05-11T21:40:48.558Z,100694.81
2019-05-11T21:43:22.324Z,100691.42
2019-05-11T21:45:55.001Z,100695.31
2019-05-11T21:48:28.991Z,100700.66
2019-05-11T21:51:05.774Z,100706.76
2019-05-11T21:53:39.430Z,100716.09
2019-05-11T21:56:12.158Z,100715.81
2019-05-11T21:58:44.726Z,100717.05
2019-05-11T22:01:20.147Z,100725.95
2019-05-11T22:03:53.347Z,100718.77
2019-05-11T22:06:30.167Z,100733.14
2019-05-11T22:09:08.145Z,100731.52
2019-05-11T22:11:41.784Z,100736.57
2019-05-11T22:14:15.269Z,100737.93
2019-05-11T22:16:51.638Z,100742.75
2019-05-11T22:19:25.365Z,100738.28
2019-05-11T22:21:59.977Z,100741.24
2019-05-11T22:24:35.867Z,100735.41
2019-05-11T22:27:09.057Z,100733.77
2019-05-11T22:29:41.876Z,100748.07
2019-05-11T22:32:21.542Z,100752.98
2019-05-11T22:34:54.768Z,100755.30
2019-05-11T22:37:29.562Z,100755.12
2019-05-11T22:40:02.255Z,100761.31
2019-05-11T22:42:35.026Z,100769.11
2019-05-11T22:45:08.995Z,100768.55
2019-05-11T22:47:42.826Z,100784.37
2019-05-11T22:50:18.351Z,100784.02
2019-05-11T22:52:51.837Z,100785.44
2019-05-11T22:55:27.807Z,100791.86
2019-05-11T22:58:01.291Z,100792.95
2019-05-11T23:00:42.759Z,100798.59
2019-05-11T23:03:15.499Z,100808.89
2019-05-11T23:05:48.854Z,100812.61
2019-05-11T23:08:22.450Z,100820.23
2019-05-11T23:10:56.322Z,100819.39
2019-05-11T23:13:29.008Z,100822.81
2019-05-11T23:16:01.703Z,100826.85
2019-05-11T23:18:34.404Z,100839.63
2019-05-11T23:21:08.740Z,100842.91
2019-05-11T23:23:41.401Z,100853.97
2019-05-11T23:26:14.178Z,100854.27
2019-05-11T23:28:48.729Z,100866.61
2019-05-11T23:31:23.268Z,100860.05
2019-05-11T23:33:57.824Z,100859.77
2019-05-11T23:36:32.580Z,100856.80
2019-05-11T23:39:09.134Z,100864.44
2019-05-11T23:41:42.402Z,100857.70
2019-05-11T23:44:18.025Z,100862.94
2019-05-11T23:46:55.050Z,100867.66
2019-05-11T23:49:27.676Z,100871.64
2019-05-11T23:52:01.395Z,100872.39
2019-05-11T23:54:35.271Z,100877.42
2019-05-11T23:57:10.141Z,100882.06
2019-05-11T23:59:42.899Z,100883.28
